Time;durP1;ratioP1;P1;durP2;ratioP2;P2;SDS_P1;SDS_P2;PMS_P1;PMS_P2;Temp;Humidity;BMP_temperature;BMP_pressure;BME280_temperature;BME280_humidity;BME280_pressure;Samples;Min_cycle;Max_cycle;Signal;HPM_P1;HPM_P2
2023/12/08 00:00:07;;;;;;;;;7.67;7.00;;;;;7.70;91.18;100266.03;5056891;28;66719;-51
2023/12/08 00:02:32;;;;;;;;;6.33;5.00;;;;;7.68;90.91;100265.22;5057746;28;45621;-53
2023/12/08 00:04:58;;;;;;;;;7.00;6.00;;;;;7.67;90.77;100259.09;5057675;28;45346;-54
2023/12/08 00:07:23;;;;;;;;;9.33;6.67;;;;;7.69;90.98;100270.47;5069494;27;68717;-51
2023/12/08 00:09:48;;;;;;;;;5.67;5.67;;;;;7.73;90.98;100269.41;5057554;28;47406;-54
2023/12/08 00:12:14;;;;;;;;;6.33;5.33;;;;;7.78;90.99;100275.34;5057235;28;46688;-54
2023/12/08 00:14:39;;;;;;;;;3.00;2.67;;;;;7.84;91.03;100270.69;5056821;28;67079;-51
2023/12/08 00:17:05;;;;;;;;;5.00;5.00;;;;;7.86;90.96;100276.75;5056189;28;69245;-50
2023/12/08 00:19:31;;;;;;;;;3.67;3.67;;;;;7.89;90.73;100276.63;5055972;28;45458;-50
2023/12/08 00:21:56;;;;;;;;;9.00;5.00;;;;;7.93;90.36;100291.44;5055853;28;46223;-52
2023/12/08 00:24:21;;;;;;;;;4.67;4.67;;;;;7.96;90.71;100291.28;5057494;28;45855;-53
2023/12/08 00:26:47;;;;;;;;;8.00;6.67;;;;;7.99;90.70;100288.50;5061263;28;45717;-50
2023/12/08 00:29:12;;;;;;;;;9.00;7.00;;;;;8.03;90.91;100283.91;5060388;28;45381;-50
2023/12/08 00:31:37;;;;;;;;;4.67;4.67;;;;;8.05;90.28;100290.84;5059653;28;74668;-50
2023/12/08 00:34:03;;;;;;;;;5.33;5.00;;;;;8.08;90.38;100292.50;5060026;28;55911;-50
2023/12/08 00:36:28;;;;;;;;;5.33;5.00;;;;;8.10;90.13;100286.19;5061167;28;45293;-51
2023/12/08 00:38:54;;;;;;;;;6.00;4.00;;;;;8.13;90.47;100284.34;5059769;28;70835;-49
2023/12/08 00:41:19;;;;;;;;;4.33;4.33;;;;;8.13;90.61;100285.19;5058280;28;45609;-53
2023/12/08 00:43:45;;;;;;;;;6.33;6.00;;;;;8.16;90.66;100287.72;5059827;28;73205;-50
2023/12/08 00:46:10;;;;;;;;;4.67;4.67;;;;;8.18;90.84;100295.56;5059094;28;45488;-53
2023/12/08 00:48:35;;;;;;;;;4.67;4.67;;;;;8.21;90.79;100298.94;5058896;28;64517;-53
2023/12/08 00:51:01;;;;;;;;;7.00;6.00;;;;;8.23;90.59;100290.91;5059377;28;72247;-54
2023/12/08 00:53:26;;;;;;;;;9.33;6.00;;;;;8.24;90.94;100296.13;5060684;28;52193;-53
2023/12/08 00:55:52;;;;;;;;;4.67;4.00;;;;;8.23;90.91;100286.47;5060478;28;45331;-51
2023/12/08 00:58:17;;;;;;;;;3.00;3.00;;;;;8.25;90.75;100278.44;5060112;28;60051;-53
2023/12/08 01:00:43;;;;;;;;;7.00;4.00;;;;;8.26;90.23;100283.66;5059175;28;45416;-52
2023/12/08 01:03:09;;;;;;;;;6.33;5.00;;;;;8.28;91.03;100286.25;5059988;28;46507;-50
2023/12/08 01:05:34;;;;;;;;;4.33;4.33;;;;;8.31;90.47;100287.91;5059646;28;67139;-50
2023/12/08 01:07:59;;;;;;;;;5.00;5.00;;;;;8.34;90.54;100290.38;5059218;28;69312;-51
2023/12/08 01:10:24;;;;;;;;;3.00;3.00;;;;;8.33;90.67;100284.25;5059299;28;70973;-50
2023/12/08 01:12:50;;;;;;;;;6.67;5.00;;;;;8.37;90.81;100291.09;5060592;28;45508;-52
2023/12/08 01:15:15;;;;;;;;;5.00;4.67;;;;;8.37;90.78;100290.22;5059470;28;61651;-51
2023/12/08 01:17:40;;;;;;;;;3.00;3.00;;;;;8.38;90.60;100297.25;5059441;28;70768;-52
2023/12/08 01:20:07;;;;;;;;;4.00;4.00;;;;;8.40;91.03;100301.53;5057350;28;62592;-52
2023/12/08 01:22:33;;;;;;;;;4.00;4.00;;;;;8.41;90.73;100303.25;5060146;28;45320;-51
2023/12/08 01:24:58;;;;;;;;;4.67;3.00;;;;;8.46;90.85;100315.47;5059917;28;45246;-53
2023/12/08 01:27:24;;;;;;;;;4.67;3.00;;;;;8.48;89.97;100316.25;5059380;28;70087;-50
2023/12/08 01:29:49;;;;;;;;;4.00;4.00;;;;;8.47;90.28;100315.38;5091453;27;74404;-53
2023/12/08 01:32:15;;;;;;;;;2.67;2.67;;;;;8.48;90.64;100309.16;5059428;28;45268;-54
2023/12/08 01:34:41;;;;;;;;;4.00;3.00;;;;;8.49;90.83;100313.53;5059825;28;45437;-54
2023/12/08 01:37:06;;;;;;;;;4.33;4.33;;;;;8.51;90.38;100316.94;5059207;28;45283;-50
2023/12/08 01:39:31;;;;;;;;;5.00;4.00;;;;;8.53;90.55;100325.69;5058206;28;74513;-51
2023/12/08 01:41:57;;;;;;;;;3.33;3.33;;;;;8.55;90.25;100323.84;5059102;28;45170;-54
2023/12/08 01:44:22;;;;;;;;;2.00;2.00;;;;;8.56;90.52;100311.44;5059017;28;69258;-52
2023/12/08 01:46:48;;;;;;;;;5.00;3.00;;;;;8.57;90.66;100313.16;5058796;28;67684;-51
2023/12/08 01:49:14;;;;;;;;;3.00;3.00;;;;;8.57;90.78;100324.59;5058623;28;66974;-50
2023/12/08 01:51:39;;;;;;;;;4.33;3.67;;;;;8.57;90.70;100316.66;5059446;28;45320;-53
2023/12/08 01:54:06;;;;;;;;;5.33;4.00;;;;;8.59;90.33;100320.09;5058614;28;69141;-54
2023/12/08 01:56:31;;;;;;;;;4.00;4.00;;;;;8.60;90.36;100318.28;5059539;28;45639;-50
2023/12/08 01:58:56;;;;;;;;;5.33;4.00;;;;;8.63;90.60;100322.56;5055941;28;70393;-51
2023/12/08 02:01:22;;;;;;;;;3.33;3.00;;;;;8.64;90.59;100326.97;5072691;27;73063;-52
2023/12/08 02:03:50;;;;;;;;;2.67;2.67;;;;;8.64;90.68;100330.44;5058193;28;47744;-51
2023/12/08 02:06:15;;;;;;;;;3.33;3.33;;;;;8.65;90.78;100344.59;5059022;28;45469;-49
2023/12/08 02:08:41;;;;;;;;;4.00;3.67;;;;;8.66;90.79;100346.31;5059544;28;45489;-54
2023/12/08 02:11:06;;;;;;;;;1.67;1.67;;;;;8.67;90.64;100340.94;5056370;28;71382;-50
2023/12/08 02:13:32;;;;;;;;;4.00;3.00;;;;;8.67;90.91;100338.28;5058310;28;68399;-52
2023/12/08 02:16:03;;;;;;;;;4.33;3.00;;;;;8.69;90.62;100344.34;5058837;28;45247;-54
2023/12/08 02:18:29;;;;;;;;;4.00;4.00;;;;;8.69;90.65;100347.00;5089461;27;45505;-49
2023/12/08 02:20:55;;;;;;;;;3.00;3.00;;;;;8.70;90.81;100361.97;5057967;28;45318;-49
2023/12/08 02:23:20;;;;;;;;;4.00;3.33;;;;;8.72;91.02;100362.78;5058542;28;69180;-52
2023/12/08 02:25:45;;;;;;;;;3.00;3.00;;;;;8.73;91.01;100356.50;5058528;28;65904;-50
2023/12/08 02:28:11;;;;;;;;;4.33;3.00;;;;;8.73;90.97;100367.13;5058809;28;46338;-53
2023/12/08 02:30:36;;;;;;;;;6.33;3.00;;;;;8.74;90.89;100354.72;5057970;28;68850;-52
2023/12/08 02:33:05;;;;;;;;;4.00;4.00;;;;;8.74;91.04;100352.09;5058314;28;69170;-51
2023/12/08 02:35:32;;;;;;;;;3.00;3.00;;;;;8.74;91.16;100349.44;5058999;28;48948;-50
2023/12/08 02:37:59;;;;;;;;;3.00;3.00;;;;;8.73;90.83;100351.22;5057359;28;46968;-54
2023/12/08 02:40:24;;;;;;;;;6.00;5.00;;;;;8.74;91.08;100357.38;5088452;27;71847;-51
2023/12/08 02:42:50;;;;;;;;;3.67;3.33;;;;;8.75;91.03;100348.50;5058204;28;45374;-52
2023/12/08 02:45:15;;;;;;;;;3.00;3.00;;;;;8.74;90.77;100350.28;5058220;28;54524;-53
2023/12/08 02:47:40;;;;;;;;;4.67;3.00;;;;;8.75;91.06;100344.03;5057664;28;74659;-53
2023/12/08 02:50:06;;;;;;;;;5.00;5.00;;;;;8.76;90.75;100336.94;5057470;28;73183;-51
2023/12/08 02:52:31;;;;;;;;;3.67;2.67;;;;;8.77;90.78;100347.50;5059164;28;45453;-52
2023/12/08 02:54:56;;;;;;;;;5.00;3.67;;;;;8.77;91.25;100344.84;5058529;28;45356;-50
2023/12/08 02:57:22;;;;;;;;;0.00;0.00;;;;;8.77;90.92;100339.53;5058175;28;75682;-50
2023/12/08 02:59:47;;;;;;;;;4.00;4.00;;;;;8.79;91.32;100347.41;5055722;28;55178;-53
2023/12/08 03:02:12;;;;;;;;;5.00;5.00;;;;;8.78;90.73;100349.19;5058410;28;45623;-50
2023/12/08 03:04:38;;;;;;;;;4.33;4.00;;;;;8.78;91.35;100341.22;5057497;28;45284;-51
2023/12/08 03:07:03;;;;;;;;;4.33;3.00;;;;;8.77;91.12;100342.19;5057956;28;63038;-52
2023/12/08 03:09:28;;;;;;;;;3.67;3.67;;;;;8.77;91.42;100343.97;5058134;28;73197;-52
2023/12/08 03:11:54;;;;;;;;;3.00;2.67;;;;;8.78;91.58;100346.53;5058941;28;45398;-52
2023/12/08 03:14:19;;;;;;;;;5.00;5.00;;;;;8.78;91.31;100320.00;5057261;28;69427;-50
2023/12/08 03:16:46;;;;;;;;;4.00;4.00;;;;;8.81;91.35;100328.78;5057000;28;46149;-53
2023/12/08 03:19:11;;;;;;;;;5.00;5.00;;;;;8.82;91.54;100335.78;5056456;28;45400;-53
2023/12/08 03:21:37;;;;;;;;;3.33;3.00;;;;;8.83;91.31;100340.16;5058744;28;45327;-51
2023/12/08 03:24:02;;;;;;;;;9.67;3.67;;;;;8.82;91.87;100343.75;5089637;27;70332;-53
2023/12/08 03:26:28;;;;;;;;;5.33;4.33;;;;;8.79;91.83;100344.75;5058481;28;48452;-52
2023/12/08 03:28:53;;;;;;;;;3.67;3.33;;;;;8.81;91.89;100342.88;5057234;28;65555;-52
2023/12/08 03:31:25;;;;;;;;;4.33;3.33;;;;;8.83;91.81;100348.13;5055066;28;68417;-53
2023/12/08 03:33:50;;;;;;;;;4.33;4.00;;;;;8.84;92.30;100355.13;5057884;28;45487;-52
2023/12/08 03:36:16;;;;;;;;;5.33;4.67;;;;;8.84;92.12;100363.97;5057246;28;45335;-50
2023/12/08 03:38:41;;;;;;;;;5.00;3.00;;;;;8.86;91.87;100369.19;5058457;28;45339;-49
2023/12/08 03:41:06;;;;;;;;;6.33;4.67;;;;;8.87;92.08;100368.25;5057883;28;45344;-53
2023/12/08 03:43:32;;;;;;;;;4.67;4.00;;;;;8.88;92.18;100367.31;5057256;28;70614;-52
2023/12/08 03:45:57;;;;;;;;;4.00;4.00;;;;;8.88;91.60;100370.81;5056577;28;74579;-53
2023/12/08 03:48:23;;;;;;;;;4.00;4.00;;;;;8.88;91.94;100362.88;5055548;28;45312;-52
2023/12/08 03:50:48;;;;;;;;;4.00;3.00;;;;;8.88;92.08;100372.63;5058011;28;45312;-52
2023/12/08 03:53:13;;;;;;;;;5.00;4.00;;;;;8.89;92.01;100377.84;5056456;28;69324;-51
2023/12/08 03:55:38;;;;;;;;;5.00;3.00;;;;;8.91;92.18;100383.91;5057238;28;71409;-51
2023/12/08 03:58:04;;;;;;;;;5.33;4.00;;;;;8.93;92.50;100389.19;5055303;28;71408;-52
2023/12/08 04:00:29;;;;;;;;;4.00;4.00;;;;;8.94;92.03;100394.41;5061858;28;45336;-50
2023/12/08 04:02:54;;;;;;;;;6.00;4.00;;;;;8.94;92.04;100389.09;5060177;28;69409;-50
2023/12/08 04:05:20;;;;;;;;;4.00;4.00;;;;;8.96;92.43;100402.28;5060587;28;74656;-52
2023/12/08 04:07:45;;;;;;;;;3.67;3.00;;;;;8.97;92.64;100398.69;5060671;28;73340;-52
2023/12/08 04:10:10;;;;;;;;;6.00;3.00;;;;;8.99;91.94;100406.56;5061332;28;49619;-52
2023/12/08 04:12:36;;;;;;;;;4.00;4.00;;;;;9.00;92.25;100409.13;5061965;28;45506;-53
2023/12/08 04:15:01;;;;;;;;;5.00;3.33;;;;;9.01;92.12;100405.56;5060185;28;61724;-52
2023/12/08 04:17:26;;;;;;;;;4.67;4.67;;;;;9.03;92.85;100424.03;5060195;28;73093;-51
2023/12/08 04:19:52;;;;;;;;;2.00;2.00;;;;;9.04;92.34;100431.06;5061055;28;45541;-53
2023/12/08 04:22:17;;;;;;;;;7.00;5.00;;;;;9.04;92.60;100434.56;5074648;28;69141;-53
2023/12/08 04:24:42;;;;;;;;;4.67;4.00;;;;;9.06;92.39;100434.50;5060339;28;75569;-53
2023/12/08 04:27:07;;;;;;;;;4.67;3.00;;;;;9.05;92.65;100432.81;5060418;28;56988;-53
2023/12/08 04:29:33;;;;;;;;;4.00;4.00;;;;;9.04;93.57;100426.63;5060727;28;54441;-51
2023/12/08 04:31:58;;;;;;;;;3.67;3.67;;;;;9.02;92.21;100427.63;5060554;28;45407;-51
2023/12/08 04:34:23;;;;;;;;;3.67;3.67;;;;;9.00;92.32;100430.38;5060042;28;71159;-50
2023/12/08 04:36:49;;;;;;;;;3.00;3.00;;;;;8.99;92.92;100430.44;5059991;28;73118;-51
2023/12/08 04:39:14;;;;;;;;;2.67;2.67;;;;;9.00;93.11;100437.47;5073916;28;68334;-52
2023/12/08 04:41:39;;;;;;;;;4.00;3.00;;;;;9.00;92.94;100427.72;5058669;28;70084;-51
2023/12/08 04:44:05;;;;;;;;;9.00;4.00;;;;;9.01;93.52;100436.50;5060391;28;46855;-51
2023/12/08 04:46:30;;;;;;;;;3.33;3.33;;;;;9.01;93.36;100442.69;5060838;28;45844;-52
2023/12/08 04:48:55;;;;;;;;;4.00;3.00;;;;;8.99;94.02;100439.25;5059740;28;69024;-53
2023/12/08 04:51:21;;;;;;;;;4.33;4.33;;;;;9.00;93.62;100440.13;5060751;28;45468;-52
2023/12/08 04:53:46;;;;;;;;;6.00;4.33;;;;;8.99;93.19;100441.06;5058866;28;68969;-51
2023/12/08 04:56:11;;;;;;;;;5.67;3.33;;;;;8.98;93.75;100448.13;5059157;28;73315;-50
2023/12/08 04:58:40;;;;;;;;;4.00;4.00;;;;;8.98;93.87;100447.28;5060890;28;45457;-52
2023/12/08 05:01:05;;;;;;;;;5.00;3.67;;;;;9.00;94.13;100451.59;5059071;28;45423;-52
2023/12/08 05:03:30;;;;;;;;;3.00;3.00;;;;;9.00;94.62;100454.25;5059732;28;74542;-49
2023/12/08 05:05:56;;;;;;;;;6.00;4.67;;;;;9.04;93.85;100457.59;5059205;28;46497;-50
2023/12/08 05:08:22;;;;;;;;;8.33;4.67;;;;;9.04;94.06;100452.31;5060599;28;45519;-50
2023/12/08 05:10:48;;;;;;;;;5.33;4.67;;;;;9.04;94.11;100460.25;5059557;28;45366;-53
2023/12/08 05:13:13;;;;;;;;;6.00;4.67;;;;;9.04;95.08;100463.75;5059768;28;47749;-49
2023/12/08 05:15:39;;;;;;;;;4.00;4.00;;;;;9.06;94.35;100463.69;5060070;28;45433;-52
2023/12/08 05:18:04;;;;;;;;;5.67;3.67;;;;;9.06;93.67;100461.91;5058726;28;67630;-51
2023/12/08 05:20:29;;;;;;;;;7.00;4.67;;;;;9.08;94.23;100470.63;5059624;28;70817;-52
2023/12/08 05:22:54;;;;;;;;;5.67;5.00;;;;;9.07;94.24;100465.41;5059362;28;45990;-51
2023/12/08 05:25:20;;;;;;;;;5.00;4.00;;;;;9.09;94.79;100472.34;5056230;28;73033;-50
2023/12/08 05:27:45;;;;;;;;;5.67;4.00;;;;;9.12;95.13;100467.84;5059997;28;45490;-52
2023/12/08 05:30:11;;;;;;;;;6.00;2.33;;;;;9.14;94.62;100464.19;5058401;28;70463;-52
2023/12/08 05:32:36;;;;;;;;;3.33;3.00;;;;;9.16;95.40;100470.25;5059621;28;48962;-52
2023/12/08 05:35:02;;;;;;;;;2.67;2.67;;;;;9.17;94.63;100468.47;5059236;28;45382;-50
2023/12/08 05:37:27;;;;;;;;;2.33;2.33;;;;;9.17;94.70;100471.97;5058961;28;45443;-51
2023/12/08 05:39:53;;;;;;;;;4.67;2.33;;;;;9.17;94.09;100477.28;5058725;28;70311;-53
2023/12/08 05:42:18;;;;;;;;;5.00;3.67;;;;;9.16;94.93;100482.69;5057438;28;46115;-52
2023/12/08 05:44:43;;;;;;;;;4.33;3.33;;;;;9.15;94.07;100480.94;5065766;28;60391;-53
2023/12/08 05:47:09;;;;;;;;;4.67;3.00;;;;;9.15;94.27;100495.09;5058424;28;66780;-50
2023/12/08 05:49:34;;;;;;;;;6.00;4.00;;;;;9.16;95.08;100490.63;5058689;28;69425;-51
2023/12/08 05:51:59;;;;;;;;;6.33;3.00;;;;;9.17;95.05;100503.81;5047065;28;75566;-52
2023/12/08 05:54:25;;;;;;;;;4.00;4.00;;;;;9.18;94.64;100499.41;5059249;28;63190;-49
2023/12/08 05:56:50;;;;;;;;;2.67;2.67;;;;;9.19;94.86;100490.47;5058765;28;65412;-52
2023/12/08 05:59:15;;;;;;;;;8.67;5.33;;;;;9.19;95.15;100493.13;5058476;28;70582;-51
2023/12/08 06:01:40;;;;;;;;;4.67;4.00;;;;;9.20;94.67;100495.69;5056029;28;75744;-49
2023/12/08 06:04:06;;;;;;;;;5.00;3.00;;;;;9.21;94.90;100504.53;5061395;27;72694;-49
2023/12/08 06:06:32;;;;;;;;;6.33;5.00;;;;;9.20;94.64;100508.97;5056814;28;67674;-53
2023/12/08 06:08:57;;;;;;;;;4.33;2.67;;;;;9.21;94.43;100512.50;5057319;28;45473;-52
2023/12/08 06:11:22;;;;;;;;;5.33;3.00;;;;;9.22;94.99;100520.38;5057858;28;69273;-50
2023/12/08 06:13:48;;;;;;;;;6.33;5.33;;;;;9.23;94.67;100521.22;5059300;28;45512;-49
2023/12/08 06:16:13;;;;;;;;;5.33;3.00;;;;;9.24;94.84;100523.84;5057537;28;69431;-49
2023/12/08 06:18:39;;;;;;;;;6.00;4.67;;;;;9.24;93.84;100528.28;5058623;28;70572;-50
2023/12/08 06:21:05;;;;;;;;;2.67;2.00;;;;;9.23;94.80;100530.06;5058418;28;45477;-53
2023/12/08 06:23:30;;;;;;;;;6.00;4.00;;;;;9.23;94.84;100524.75;5059039;28;45486;-50
2023/12/08 06:25:55;;;;;;;;;5.00;3.67;;;;;9.24;95.04;100534.44;5062892;28;50012;-51
2023/12/08 06:28:21;;;;;;;;;3.67;3.00;;;;;9.25;94.62;100545.91;5054893;28;69836;-53
2023/12/08 06:30:46;;;;;;;;;8.00;5.00;;;;;9.25;94.47;100545.91;5057274;28;50515;-49
2023/12/08 06:33:11;;;;;;;;;4.00;4.00;;;;;9.24;94.60;100544.19;5055574;28;73354;-49
2023/12/08 06:35:37;;;;;;;;;5.67;4.67;;;;;9.25;94.65;100543.25;5053362;28;67853;-52
2023/12/08 06:38:04;;;;;;;;;5.67;5.00;;;;;9.24;94.08;100554.81;5058690;28;45450;-52
2023/12/08 06:40:29;;;;;;;;;6.00;5.00;;;;;9.23;94.16;100553.06;5057490;28;46122;-52
2023/12/08 06:42:55;;;;;;;;;5.67;4.00;;;;;9.22;94.46;100548.72;5062144;28;45406;-50
2023/12/08 06:45:20;;;;;;;;;5.67;4.00;;;;;9.21;94.64;100550.50;5061004;27;68067;-50
2023/12/08 06:47:46;;;;;;;;;6.67;5.33;;;;;9.19;94.64;100546.22;5057778;28;45338;-51
2023/12/08 06:50:11;;;;;;;;;5.33;4.33;;;;;9.20;94.77;100555.91;5058329;28;45308;-50
2023/12/08 06:52:36;;;;;;;;;5.00;5.00;;;;;9.20;94.82;100566.50;5057430;28;72290;-50
2023/12/08 06:55:02;;;;;;;;;6.00;5.00;;;;;9.22;95.05;100564.66;5058377;28;45323;-52
2023/12/08 06:57:27;;;;;;;;;4.67;4.00;;;;;9.23;95.07;100569.88;5058792;28;45558;-51
2023/12/08 06:59:52;;;;;;;;;7.33;4.67;;;;;9.25;94.73;100575.97;5057070;28;71170;-51
2023/12/08 07:02:18;;;;;;;;;7.00;5.33;;;;;9.25;95.06;100575.97;5058692;28;45524;-51
2023/12/08 07:04:43;;;;;;;;;11.00;6.67;;;;;9.24;94.77;100582.22;5052879;28;63057;-50
2023/12/08 07:07:08;;;;;;;;;5.33;5.33;;;;;9.23;95.07;100587.59;5057732;28;45478;-50
2023/12/08 07:09:34;;;;;;;;;7.00;5.33;;;;;9.22;94.59;100589.38;5058063;28;55514;-52
2023/12/08 07:11:59;;;;;;;;;8.50;5.50;;;;;9.22;95.16;100593.84;5057441;28;52693;-50
2023/12/08 07:14:24;;;;;;;;;4.00;4.00;;;;;9.23;95.02;100592.88;5056999;28;70397;-50
2023/12/08 07:16:50;;;;;;;;;8.67;7.67;;;;;9.18;94.83;100589.63;5056072;28;70407;-49
2023/12/08 07:19:15;;;;;;;;;6.00;5.67;;;;;9.12;94.76;100592.56;5053582;28;46312;-48
2023/12/08 07:21:44;;;;;;;;;9.00;8.00;;;;;9.12;95.61;100593.41;5057230;28;73346;-49
2023/12/08 07:24:12;;;;;;;;;16.67;8.00;;;;;9.10;96.68;100600.59;5058387;28;45343;-49
2023/12/08 07:26:37;;;;;;;;;12.33;6.33;;;;;9.10;96.05;100624.47;5058321;28;45347;-49
2023/12/08 07:29:03;;;;;;;;;6.00;5.00;;;;;9.13;96.62;100637.59;5090505;27;46728;-50
2023/12/08 07:31:28;;;;;;;;;8.33;6.00;;;;;9.16;95.94;100639.25;5058226;28;45295;-53
2023/12/08 07:33:54;;;;;;;;;8.67;6.00;;;;;9.15;95.48;100638.41;5058857;28;57052;-52
2023/12/08 07:36:19;;;;;;;;;7.00;7.00;;;;;9.17;96.26;100643.63;5061945;28;45524;-53
2023/12/08 07:38:45;;;;;;;;;6.00;4.33;;;;;9.17;96.44;100638.31;5061189;28;75500;-51
2023/12/08 07:41:10;;;;;;;;;7.00;5.00;;;;;9.19;96.44;100631.13;5060812;28;58064;-50
2023/12/08 07:43:36;;;;;;;;;5.33;4.33;;;;;9.19;96.25;100641.75;5059938;28;64806;-50
2023/12/08 07:46:01;;;;;;;;;8.00;6.33;;;;;9.20;96.15;100636.34;5061217;28;45368;-50
2023/12/08 07:48:27;;;;;;;;;7.67;7.00;;;;;9.22;96.21;100631.84;5061370;28;46140;-51
2023/12/08 07:50:52;;;;;;;;;7.33;6.00;;;;;9.25;96.27;100633.50;5089216;27;45622;-51
2023/12/08 07:53:18;;;;;;;;;7.00;5.00;;;;;9.25;96.59;100650.28;5060526;28;61443;-52
2023/12/08 07:55:43;;;;;;;;;10.67;7.33;;;;;9.26;96.52;100649.34;5061661;28;45516;-51
2023/12/08 07:58:08;;;;;;;;;7.00;6.00;;;;;9.29;96.91;100647.50;5057519;28;75681;-52
2023/12/08 08:00:34;;;;;;;;;12.67;11.33;;;;;9.30;96.50;100663.34;5054696;28;45646;-51
2023/12/08 08:02:59;;;;;;;;;7.67;7.67;;;;;9.31;96.77;100651.81;5040952;28;65628;-53
2023/12/08 08:05:25;;;;;;;;;13.67;9.33;;;;;9.33;96.93;100655.22;5060202;28;45318;-53
2023/12/08 08:07:50;;;;;;;;;12.67;8.67;;;;;9.35;96.52;100649.88;5060556;28;46097;-53
2023/12/08 08:10:16;;;;;;;;;8.33;6.67;;;;;9.36;96.46;100656.88;5060137;28;45415;-53
2023/12/08 08:12:41;;;;;;;;;14.33;10.33;;;;;9.37;96.51;100667.44;5061135;28;45995;-53
2023/12/08 08:15:06;;;;;;;;;8.33;7.00;;;;;9.39;96.37;100672.69;5059113;28;69511;-53
2023/12/08 08:17:32;;;;;;;;;6.67;4.33;;;;;9.40;96.50;100675.25;5060552;28;45916;-53
2023/12/08 08:19:57;;;;;;;;;8.33;7.00;;;;;9.42;96.84;100683.13;5058802;28;45635;-53
2023/12/08 08:22:23;;;;;;;;;12.33;9.33;;;;;9.46;96.59;100675.91;5060439;28;45578;-53
2023/12/08 08:24:48;;;;;;;;;9.67;8.00;;;;;9.48;96.62;100674.91;5058722;28;54428;-52
2023/12/08 08:27:13;;;;;;;;;6.00;5.00;;;;;9.50;96.48;100682.78;5059388;28;46578;-53
2023/12/08 08:29:39;;;;;;;;;8.00;4.00;;;;;9.52;96.30;100680.94;5060490;28;45504;-50
2023/12/08 08:32:04;;;;;;;;;7.33;6.00;;;;;9.54;96.38;100679.91;5057577;28;69323;-51
2023/12/08 08:34:29;;;;;;;;;6.67;4.67;;;;;9.55;96.25;100686.09;5060065;28;45359;-50
2023/12/08 08:36:55;;;;;;;;;7.33;7.33;;;;;9.56;96.54;100679.84;5058078;28;46743;-53
2023/12/08 08:39:20;;;;;;;;;7.33;6.67;;;;;9.57;96.63;100690.38;5059472;28;71922;-51
2023/12/08 08:41:46;;;;;;;;;10.00;7.67;;;;;9.59;96.25;100692.97;5060251;28;45405;-52
2023/12/08 08:44:11;;;;;;;;;9.67;7.00;;;;;9.62;96.47;100697.25;5057535;28;45742;-54
2023/12/08 08:46:44;;;;;;;;;4.67;4.67;;;;;9.62;96.63;100692.84;5059323;28;58379;-51
2023/12/08 08:49:10;;;;;;;;;7.33;6.00;;;;;9.65;96.53;100682.06;5092083;27;45412;-54
2023/12/08 08:51:35;;;;;;;;;9.33;7.00;;;;;9.68;96.75;100676.59;5059850;28;45758;-54
2023/12/08 08:54:00;;;;;;;;;8.67;7.00;;;;;9.71;96.22;100686.19;5060190;28;45634;-53
2023/12/08 08:56:26;;;;;;;;;6.67;4.00;;;;;9.73;96.24;100689.66;5058347;28;46027;-51
2023/12/08 08:58:53;;;;;;;;;9.67;6.00;;;;;9.77;95.85;100685.91;5059278;28;45381;-53
2023/12/08 09:01:18;;;;;;;;;8.00;7.00;;;;;9.81;95.79;100681.31;5059476;28;45656;-52
2023/12/08 09:03:43;;;;;;;;;7.00;7.00;;;;;9.84;96.18;100690.00;5058659;28;70235;-52
2023/12/08 09:06:09;;;;;;;;;7.00;6.00;;;;;9.86;95.82;100681.94;5058716;28;56052;-52
2023/12/08 09:08:34;;;;;;;;;6.00;6.00;;;;;9.86;96.05;100680.16;5059829;28;55755;-51
2023/12/08 09:10:59;;;;;;;;;8.00;7.00;;;;;9.90;95.68;100684.38;5058412;28;54119;-52
2023/12/08 09:13:25;;;;;;;;;11.67;6.67;;;;;9.96;95.49;100691.19;5058930;28;45386;-54
2023/12/08 09:15:51;;;;;;;;;5.00;5.00;;;;;9.99;95.31;100690.19;5058065;28;75817;-52
2023/12/08 09:18:16;;;;;;;;;6.00;6.00;;;;;10.05;95.33;100687.19;5056479;28;45525;-51
2023/12/08 09:20:43;;;;;;;;;8.33;6.67;;;;;10.06;95.51;100687.16;5055160;28;45669;-53
2023/12/08 09:23:08;;;;;;;;;11.00;7.00;;;;;10.09;95.03;100679.00;5058031;28;45419;-52
2023/12/08 09:25:34;;;;;;;;;8.33;6.67;;;;;10.14;95.04;100686.75;5057892;28;75583;-51
2023/12/08 09:27:59;;;;;;;;;8.00;7.00;;;;;10.19;94.72;100681.22;5058420;28;45528;-51
2023/12/08 09:30:26;;;;;;;;;12.00;8.67;;;;;10.25;94.77;100694.19;5057895;28;63193;-52
2023/12/08 09:32:52;;;;;;;;;13.00;7.00;;;;;10.28;94.13;100696.69;5059114;28;45602;-52
2023/12/08 09:35:18;;;;;;;;;10.33;5.67;;;;;10.31;93.82;100704.53;5055301;28;45690;-52
2023/12/08 09:37:43;;;;;;;;;9.33;6.00;;;;;10.33;93.81;100704.44;5057677;28;45533;-52
2023/12/08 09:40:14;;;;;;;;;7.00;5.00;;;;;10.34;93.81;100700.81;5057100;28;67834;-53
2023/12/08 09:42:43;;;;;;;;;9.33;7.33;;;;;10.36;93.64;100707.81;5059467;28;45461;-53
2023/12/08 09:45:10;;;;;;;;;10.33;5.33;;;;;10.39;93.38;100707.69;5053849;28;46631;-54
2023/12/08 09:47:35;;;;;;;;;8.00;6.00;;;;;10.42;93.62;100701.34;5059012;28;45450;-53
2023/12/08 09:50:04;;;;;;;;;3.67;3.67;;;;;10.45;93.29;100709.16;5058680;28;45255;-52
2023/12/08 09:52:30;;;;;;;;;5.00;5.00;;;;;10.45;93.19;100709.16;5057270;28;45650;-53
2023/12/08 09:54:56;;;;;;;;;6.33;5.00;;;;;10.47;92.97;100707.31;5056811;28;74379;-52
2023/12/08 09:57:22;;;;;;;;;6.67;5.00;;;;;10.50;92.97;100715.09;5057081;28;61690;-53
2023/12/08 09:59:50;;;;;;;;;8.00;7.00;;;;;10.54;92.93;100727.31;5058553;28;45384;-53
2023/12/08 10:02:15;;;;;;;;;10.00;7.00;;;;;10.59;92.16;100722.63;5058751;28;45519;-50
2023/12/08 10:04:41;;;;;;;;;7.00;5.67;;;;;10.62;92.23;100715.44;5058532;28;45374;-53
2023/12/08 10:07:08;;;;;;;;;8.33;6.67;;;;;10.66;92.63;100720.50;5058357;28;45563;-51
2023/12/08 10:09:35;;;;;;;;;5.33;4.00;;;;;10.72;92.14;100722.84;5056382;28;69321;-50
2023/12/08 10:12:00;;;;;;;;;7.33;4.33;;;;;10.74;91.40;100726.31;5056874;28;52610;-50
2023/12/08 10:14:25;;;;;;;;;6.67;4.33;;;;;10.76;91.04;100727.06;5057475;28;66081;-52
2023/12/08 10:16:51;;;;;;;;;9.67;6.00;;;;;10.88;91.17;100728.22;5060033;28;45489;-53
2023/12/08 10:19:20;;;;;;;;;9.00;6.00;;;;;11.14;90.93;100722.47;5058115;28;45402;-53
2023/12/08 10:21:57;;;;;;;;;5.67;5.67;;;;;11.39;90.32;100720.22;5058592;28;45482;-52
2023/12/08 10:24:23;;;;;;;;;4.33;4.33;;;;;11.69;89.74;100716.78;5049512;28;45536;-50
2023/12/08 10:26:49;;;;;;;;;9.00;5.00;;;;;11.88;87.70;100713.09;5055051;28;72084;-51
2023/12/08 10:29:17;;;;;;;;;5.33;4.00;;;;;11.94;87.44;100706.53;5053927;28;64832;-53
2023/12/08 10:31:42;;;;;;;;;6.00;6.00;;;;;12.01;86.80;100708.78;5053702;28;45873;-53
2023/12/08 10:34:07;;;;;;;;;4.00;4.00;;;;;12.10;86.90;100714.53;5056559;28;64666;-53
2023/12/08 10:36:32;;;;;;;;;5.33;3.00;;;;;12.22;86.62;100712.03;5057534;28;73252;-52
2023/12/08 10:38:59;;;;;;;;;4.33;3.33;;;;;12.38;85.40;100716.47;5057977;28;45421;-54
2023/12/08 10:41:24;;;;;;;;;6.33;5.67;;;;;12.77;85.61;100704.34;5057796;28;45538;-53
2023/12/08 10:43:49;;;;;;;;;5.67;4.33;;;;;13.37;84.26;100711.34;5052954;28;75525;-53
2023/12/08 10:46:15;;;;;;;;;4.67;3.67;;;;;14.02;83.00;100701.84;5049414;28;45530;-53
2023/12/08 10:48:41;;;;;;;;;8.00;5.00;;;;;14.53;80.51;100700.28;5058121;28;45558;-54
2023/12/08 10:51:13;;;;;;;;;7.00;4.33;;;;;14.98;78.87;100708.78;5053073;28;45748;-53
2023/12/08 10:53:38;;;;;;;;;4.33;3.33;;;;;15.47;77.71;100706.28;5048882;28;47067;-55
2023/12/08 10:56:05;;;;;;;;;7.33;4.33;;;;;15.84;73.23;100711.69;5046754;28;65190;-55
2023/12/08 10:58:32;;;;;;;;;7.33;5.33;;;;;16.13;74.39;100700.59;5058609;28;45433;-55
2023/12/08 11:00:58;;;;;;;;;7.33;6.33;;;;;16.39;71.47;100706.69;5055995;28;45450;-54
2023/12/08 11:03:32;;;;;;;;;9.67;8.67;;;;;16.58;71.59;100716.00;5090315;27;60372;-55
2023/12/08 11:06:07;;;;;;;;;11.33;6.00;;;;;16.81;72.38;100706.19;5055081;28;46417;-55
2023/12/08 11:08:33;;;;;;;;;11.67;6.00;;;;;16.98;68.58;100707.56;5052806;28;45371;-56
2023/12/08 11:11:01;;;;;;;;;3.33;3.00;;;;;16.92;68.95;100705.34;5057366;28;46624;-55
2023/12/08 11:13:28;;;;;;;;;5.00;5.00;;;;;16.90;68.62;100700.13;5055812;28;46221;-56
2023/12/08 11:16:11;;;;;;;;;6.00;4.00;;;;;16.93;69.02;100697.19;5056948;28;45465;-55
2023/12/08 11:18:38;;;;;;;;;6.00;5.00;;;;;17.09;68.62;100696.84;5057240;28;45461;-53
2023/12/08 11:21:07;;;;;;;;;7.00;6.33;;;;;17.28;68.36;100704.28;5057701;28;45373;-54
2023/12/08 11:23:33;;;;;;;;;5.33;5.33;;;;;17.46;66.86;100710.00;5056760;28;45316;-54